createdAt,value
2023-05-18T00:01:42.688Z,43.86
2023-05-18T00:04:12.741Z,43.85
2023-05-18T00:06:43.483Z,43.78
2023-05-18T00:09:14.169Z,43.86
2023-05-18T00:11:46.727Z,43.63
2023-05-18T00:14:16.566Z,43.61
2023-05-18T00:16:51.814Z,43.41
2023-05-18T00:19:20.418Z,43.58
2023-05-18T00:21:49.192Z,43.74
2023-05-18T00:24:17.758Z,43.65
2023-05-18T00:26:49.262Z,43.75
2023-05-18T00:29:20.760Z,43.76
2023-05-18T00:31:48.323Z,43.66
2023-05-18T00:34:21.249Z,43.52
2023-05-18T00:36:51.731Z,43.70
2023-05-18T00:39:21.844Z,43.64
2023-05-18T00:41:54.891Z,43.43
2023-05-18T00:44:28.042Z,43.47
2023-05-18T00:47:00.701Z,43.52
2023-05-18T00:49:31.230Z,43.62
2023-05-18T00:52:01.421Z,43.60
2023-05-18T00:54:34.820Z,43.44
2023-05-18T00:57:02.553Z,43.48
2023-05-18T00:59:30.894Z,43.61
2023-05-18T01:02:01.702Z,43.46
2023-05-18T01:04:34.167Z,43.37
2023-05-18T01:07:07.433Z,43.33
2023-05-18T01:09:37.797Z,43.07
2023-05-18T01:12:24.803Z,43.10
2023-05-18T01:15:08.098Z,42.99
2023-05-18T01:18:17.378Z,43.01
2023-05-18T01:20:59.534Z,42.85
2023-05-18T01:23:41.839Z,42.86
2023-05-18T01:26:29.817Z,43.05
2023-05-18T01:29:10.038Z,43.13
2023-05-18T01:31:40.449Z,42.92
2023-05-18T01:34:07.836Z,42.66
2023-05-18T01:36:38.326Z,42.93
2023-05-18T01:39:11.652Z,43.13
2023-05-18T01:41:51.399Z,42.97
2023-05-18T01:44:33.000Z,43.04
2023-05-18T01:47:14.114Z,42.82
2023-05-18T01:50:05.147Z,42.93
2023-05-18T01:52:40.523Z,42.87
2023-05-18T01:55:10.247Z,42.75
2023-05-18T01:57:41.472Z,42.75
2023-05-18T02:00:12.858Z,42.72
2023-05-18T02:02:50.650Z,42.65
2023-05-18T02:05:21.794Z,42.76
2023-05-18T02:07:52.475Z,42.41
2023-05-18T02:10:22.502Z,42.30
2023-05-18T02:12:53.913Z,42.72
2023-05-18T02:15:30.279Z,42.44
2023-05-18T02:18:03.765Z,42.40
2023-05-18T02:20:33.688Z,42.47
2023-05-18T02:23:01.513Z,42.34
2023-05-18T02:25:31.778Z,42.55
2023-05-18T02:28:02.635Z,42.43
2023-05-18T02:30:36.297Z,42.42
2023-05-18T02:33:06.080Z,42.43
2023-05-18T02:35:41.551Z,42.48
2023-05-18T02:38:12.141Z,42.37
2023-05-18T02:40:41.861Z,42.41
2023-05-18T02:43:12.020Z,42.03
2023-05-18T02:45:42.105Z,42.35
2023-05-18T02:48:12.204Z,42.54
2023-05-18T02:50:40.539Z,42.63
2023-05-18T02:53:11.276Z,42.64
2023-05-18T02:55:38.987Z,42.61
2023-05-18T02:58:18.111Z,42.90
2023-05-18T03:01:03.766Z,42.63
2023-05-18T03:03:41.602Z,42.65
2023-05-18T03:06:10.014Z,42.50
2023-05-18T03:08:42.935Z,42.67
2023-05-18T03:11:14.440Z,42.66
2023-05-18T03:13:45.139Z,42.61
2023-05-18T03:16:13.408Z,42.56
2023-05-18T03:18:44.306Z,42.53
2023-05-18T03:21:17.720Z,42.72
2023-05-18T03:23:46.040Z,42.76
2023-05-18T03:26:16.660Z,42.54
2023-05-18T03:28:44.380Z,42.43
2023-05-18T03:31:17.660Z,42.58
2023-05-18T03:33:50.038Z,42.47
2023-05-18T03:36:22.935Z,42.54
2023-05-18T03:38:55.415Z,42.52
2023-05-18T03:41:28.384Z,42.43
2023-05-18T03:44:01.928Z,42.44
2023-05-18T03:46:35.656Z,42.71
2023-05-18T03:49:08.095Z,42.29
2023-05-18T03:51:43.308Z,42.72
2023-05-18T03:54:12.956Z,42.54
2023-05-18T03:56:42.248Z,42.48
2023-05-18T03:59:12.033Z,42.62
2023-05-18T04:01:42.470Z,42.33
2023-05-18T04:04:18.009Z,42.50
2023-05-18T04:06:49.392Z,42.32
2023-05-18T04:09:20.756Z,42.30
2023-05-18T04:11:51.551Z,42.40
2023-05-18T04:14:21.467Z,42.05
2023-05-18T04:16:52.862Z,42.31
2023-05-18T04:19:24.167Z,42.13
2023-05-18T04:21:55.029Z,42.02
2023-05-18T04:24:27.014Z,42.05
2023-05-18T04:27:00.835Z,41.94
2023-05-18T04:29:31.583Z,41.89
2023-05-18T04:32:03.953Z,41.81
2023-05-18T04:34:37.401Z,41.68
2023-05-18T04:37:05.930Z,41.62
2023-05-18T04:39:39.530Z,41.71
2023-05-18T04:42:14.613Z,41.75
2023-05-18T04:44:46.161Z,41.56
2023-05-18T04:47:15.888Z,42.04
2023-05-18T04:49:46.065Z,41.55
2023-05-18T04:52:24.716Z,41.72
2023-05-18T04:54:55.422Z,41.61
2023-05-18T04:57:25.434Z,41.77
2023-05-18T04:59:55.305Z,41.73
2023-05-18T05:02:23.146Z,41.56
2023-05-18T05:04:51.174Z,41.52
2023-05-18T05:07:20.732Z,41.58
2023-05-18T05:09:51.238Z,41.48
2023-05-18T05:12:19.537Z,41.50
2023-05-18T05:14:49.798Z,41.62
2023-05-18T05:17:19.536Z,41.48
2023-05-18T05:19:49.318Z,41.17
2023-05-18T05:22:17.980Z,41.00
2023-05-18T05:24:46.016Z,41.16
2023-05-18T05:27:16.206Z,41.01
2023-05-18T05:29:47.648Z,41.07
2023-05-18T05:32:19.198Z,41.19
2023-05-18T05:34:54.498Z,40.93
2023-05-18T05:37:22.540Z,41.14
2023-05-18T05:39:54.235Z,41.15
2023-05-18T05:42:25.702Z,40.72
2023-05-18T05:44:59.108Z,40.48
2023-05-18T05:47:27.805Z,40.32
2023-05-18T05:49:58.435Z,40.32
2023-05-18T05:52:29.199Z,40.33
2023-05-18T05:55:00.224Z,40.37
2023-05-18T05:57:28.513Z,40.10
2023-05-18T05:59:56.056Z,40.01
2023-05-18T06:02:23.778Z,39.62
2023-05-18T06:04:51.603Z,40.11
2023-05-18T06:07:19.548Z,39.82
2023-05-18T06:09:47.280Z,39.53
2023-05-18T06:12:14.843Z,39.82
2023-05-18T06:14:42.490Z,39.54
2023-05-18T06:17:10.651Z,40.08
2023-05-18T06:19:38.333Z,39.57
2023-05-18T06:22:06.386Z,39.25
2023-05-18T06:24:42.593Z,39.27
2023-05-18T06:27:28.824Z,39.25
2023-05-18T06:30:19.565Z,38.63
2023-05-18T06:33:08.420Z,38.85
2023-05-18T06:35:36.351Z,38.97
2023-05-18T06:38:04.215Z,38.59
2023-05-18T06:40:32.133Z,37.80
2023-05-18T06:43:01.086Z,38.27
2023-05-18T06:45:46.407Z,38.21
2023-05-18T06:48:27.816Z,37.95
2023-05-18T06:50:55.681Z,37.91
2023-05-18T06:53:26.088Z,37.76
2023-05-18T06:55:53.741Z,37.64
2023-05-18T06:58:22.830Z,37.86
2023-05-18T07:00:51.792Z,37.81
2023-05-18T07:03:24.114Z,38.21
2023-05-18T07:05:52.020Z,38.07
2023-05-18T07:08:24.895Z,37.87
2023-05-18T07:10:58.384Z,37.90
2023-05-18T07:13:33.242Z,38.11
2023-05-18T07:16:01.379Z,37.64
2023-05-18T07:18:29.224Z,37.86
2023-05-18T07:21:00.115Z,37.68
2023-05-18T07:23:28.780Z,36.99
2023-05-18T07:25:58.930Z,36.73
2023-05-18T07:28:28.985Z,36.89
2023-05-18T07:31:02.185Z,36.84
2023-05-18T07:33:32.712Z,37.06
2023-05-18T07:36:03.274Z,36.61
2023-05-18T07:38:33.812Z,36.86
2023-05-18T07:41:01.489Z,36.96
2023-05-18T07:43:29.085Z,36.57
2023-05-18T07:45:57.072Z,36.54
2023-05-18T07:48:24.779Z,36.55
2023-05-18T07:50:53.074Z,36.33
2023-05-18T07:53:20.926Z,36.59
2023-05-18T07:55:50.084Z,36.70
2023-05-18T07:58:18.068Z,36.98
2023-05-18T08:00:46.615Z,36.70
2023-05-18T08:03:14.636Z,36.70
2023-05-18T08:05:42.893Z,36.73
2023-05-18T08:08:12.026Z,36.76
2023-05-18T08:10:39.904Z,37.16
2023-05-18T08:13:10.648Z,37.34
2023-05-18T08:15:40.883Z,36.57
2023-05-18T08:18:10.867Z,36.79
2023-05-18T08:20:43.346Z,36.75
2023-05-18T08:23:13.370Z,37.18
2023-05-18T08:25:46.724Z,37.16
2023-05-18T08:28:17.797Z,37.27
2023-05-18T08:30:51.374Z,37.23
2023-05-18T08:33:23.516Z,37.23
2023-05-18T08:35:54.025Z,37.35
2023-05-18T08:38:30.223Z,36.86
2023-05-18T08:41:15.861Z,37.02
2023-05-18T08:43:53.325Z,36.87
2023-05-18T08:46:33.511Z,37.29
2023-05-18T08:49:05.191Z,36.92
2023-05-18T08:51:41.631Z,37.36
2023-05-18T08:54:20.363Z,37.34
2023-05-18T08:56:55.674Z,37.39
2023-05-18T08:59:30.294Z,37.23
2023-05-18T09:01:58.750Z,36.98
2023-05-18T09:04:35.882Z,37.22
2023-05-18T09:07:05.585Z,36.81
2023-05-18T09:09:37.612Z,37.52
2023-05-18T09:12:06.763Z,37.17
2023-05-18T09:14:37.590Z,36.81
2023-05-18T09:17:07.837Z,36.68
2023-05-18T09:19:40.234Z,36.76
2023-05-18T09:22:11.020Z,36.36
2023-05-18T09:24:44.553Z,36.31
2023-05-18T09:27:17.289Z,36.85
2023-05-18T09:29:56.108Z,36.56
2023-05-18T09:32:30.808Z,36.71
2023-05-18T09:35:08.698Z,36.27
2023-05-18T09:37:36.635Z,36.64
2023-05-18T09:40:09.185Z,36.42
2023-05-18T09:42:44.766Z,36.38
2023-05-18T09:45:23.746Z,36.07
2023-05-18T09:47:51.653Z,35.48
2023-05-18T09:50:21.036Z,35.75
2023-05-18T09:52:50.235Z,35.91
2023-05-18T09:55:21.286Z,36.34
2023-05-18T09:57:52.932Z,36.09
2023-05-18T10:00:23.586Z,36.18
2023-05-18T10:02:53.374Z,35.79
2023-05-18T10:05:21.149Z,35.81
2023-05-18T10:07:49.197Z,35.55
2023-05-18T10:10:24.719Z,35.86
2023-05-18T10:13:02.036Z,35.46
2023-05-18T10:15:33.629Z,36.16
2023-05-18T10:18:03.627Z,35.29
2023-05-18T10:20:35.618Z,35.79
2023-05-18T10:23:11.090Z,35.77
2023-05-18T10:25:42.717Z,35.54
2023-05-18T10:28:11.981Z,35.69
2023-05-18T10:30:43.704Z,35.65
2023-05-18T10:33:24.597Z,36.03
2023-05-18T10:36:02.912Z,35.59
2023-05-18T10:38:39.386Z,35.44
2023-05-18T10:41:13.924Z,35.32
2023-05-18T10:43:42.947Z,35.93
2023-05-18T10:46:12.230Z,35.26
2023-05-18T10:48:41.104Z,35.88
2023-05-18T10:51:16.464Z,35.75
2023-05-18T10:53:47.842Z,35.79
2023-05-18T10:56:21.079Z,36.16
2023-05-18T10:58:51.891Z,35.90
2023-05-18T11:01:25.288Z,35.50
2023-05-18T11:03:58.335Z,36.13
2023-05-18T11:06:25.876Z,35.96
2023-05-18T11:08:56.105Z,35.52
2023-05-18T11:11:30.328Z,35.69
2023-05-18T11:14:04.776Z,35.38
2023-05-18T11:16:42.011Z,36.11
2023-05-18T11:19:15.109Z,35.97
2023-05-18T11:21:49.257Z,35.74
2023-05-18T11:24:33.284Z,36.13
2023-05-18T11:27:14.156Z,36.25
2023-05-18T11:29:45.251Z,36.01
2023-05-18T11:32:32.706Z,36.55
2023-05-18T11:35:00.335Z,36.23
2023-05-18T11:37:40.026Z,36.13
2023-05-18T11:40:12.175Z,35.99
2023-05-18T11:42:43.014Z,35.75
2023-05-18T11:45:15.091Z,36.45
2023-05-18T11:47:48.225Z,36.19
2023-05-18T11:50:21.020Z,36.21
2023-05-18T11:52:52.558Z,36.11
2023-05-18T11:55:22.091Z,36.35
2023-05-18T11:57:53.759Z,35.84
2023-05-18T12:00:24.199Z,36.14
2023-05-18T12:03:06.863Z,36.50
2023-05-18T12:05:38.137Z,36.57
2023-05-18T12:08:06.196Z,36.44
2023-05-18T12:10:36.882Z,36.12
2023-05-18T12:13:05.925Z,36.11
2023-05-18T12:15:37.812Z,35.98
2023-05-18T12:18:14.447Z,36.26
2023-05-18T12:20:45.756Z,36.04
2023-05-18T12:23:17.254Z,36.02
2023-05-18T12:25:45.228Z,35.86
2023-05-18T12:28:17.391Z,35.95
2023-05-18T12:30:45.687Z,35.55
2023-05-18T12:33:21.197Z,35.77
2023-05-18T12:35:54.805Z,35.63
2023-05-18T12:38:27.917Z,36.37
2023-05-18T12:40:58.559Z,36.37
2023-05-18T12:43:27.238Z,35.77
2023-05-18T12:46:04.194Z,36.39
2023-05-18T12:48:45.231Z,36.42
2023-05-18T12:51:23.293Z,35.88
2023-05-18T12:53:58.128Z,36.09
2023-05-18T12:56:30.196Z,36.37
2023-05-18T12:59:08.423Z,36.05
2023-05-18T13:01:44.759Z,36.04
2023-05-18T13:04:18.764Z,36.21
2023-05-18T13:06:57.199Z,35.59
2023-05-18T13:09:30.729Z,35.51
2023-05-18T13:14:40.644Z,35.62
2023-05-18T13:17:08.716Z,35.81
2023-05-18T13:19:37.147Z,36.17
2023-05-18T13:22:05.372Z,36.04
2023-05-18T13:24:35.806Z,35.24
2023-05-18T13:27:03.852Z,35.72
2023-05-18T13:29:34.650Z,35.70
2023-05-18T13:32:02.910Z,35.59
2023-05-18T13:34:30.782Z,35.26
2023-05-18T13:37:01.084Z,35.46
2023-05-18T13:39:29.524Z,36.14
2023-05-18T13:41:59.769Z,35.68
2023-05-18T13:44:27.786Z,35.59
2023-05-18T13:46:56.009Z,34.56
2023-05-18T13:49:24.199Z,33.88
2023-05-18T13:51:52.397Z,35.25
2023-05-18T13:54:20.895Z,34.01
2023-05-18T13:56:49.063Z,34.42
2023-05-18T13:59:19.705Z,34.42
2023-05-18T14:01:47.823Z,34.35
2023-05-18T14:04:15.841Z,34.70
2023-05-18T14:06:46.838Z,34.74
2023-05-18T14:09:14.936Z,34.20
2023-05-18T14:11:42.878Z,34.87
2023-05-18T14:14:11.204Z,34.71
2023-05-18T14:16:39.489Z,33.98
2023-05-18T14:19:07.484Z,34.32
2023-05-18T14:21:37.053Z,34.05
2023-05-18T14:24:07.819Z,34.65
2023-05-18T14:26:37.405Z,34.71
2023-05-18T14:29:05.452Z,34.92
2023-05-18T14:31:33.704Z,35.02
2023-05-18T14:34:01.774Z,34.81
2023-05-18T14:36:29.973Z,34.89
2023-05-18T14:38:57.976Z,35.03
2023-05-18T14:41:26.209Z,34.77
2023-05-18T14:43:59.949Z,34.99
2023-05-18T14:46:30.463Z,35.18
2023-05-18T14:49:01.494Z,35.25
2023-05-18T14:51:32.526Z,35.07
2023-05-18T14:54:05.516Z,34.89
2023-05-18T14:56:39.250Z,34.18
2023-05-18T14:59:10.061Z,34.89
2023-05-18T15:01:40.621Z,35.13
2023-05-18T15:04:08.808Z,35.08
2023-05-18T15:06:46.339Z,33.84
2023-05-18T15:09:20.135Z,34.50
2023-05-18T15:11:52.223Z,34.57
2023-05-18T15:14:22.175Z,34.12
2023-05-18T15:16:55.667Z,33.02
2023-05-18T15:19:25.967Z,34.11
2023-05-18T15:21:56.546Z,33.90
2023-05-18T15:24:27.548Z,34.03
2023-05-18T15:27:01.071Z,33.12
2023-05-18T15:29:34.108Z,32.87
2023-05-18T15:32:07.719Z,32.33
2023-05-18T15:34:44.526Z,32.86
2023-05-18T15:37:15.162Z,33.16
2023-05-18T15:39:42.947Z,32.47
2023-05-18T15:42:16.473Z,33.23
2023-05-18T15:44:52.199Z,32.21
2023-05-18T15:47:22.920Z,32.38
2023-05-18T15:49:50.631Z,32.92
2023-05-18T15:52:21.219Z,32.10
2023-05-18T15:54:51.299Z,32.26
2023-05-18T15:57:18.944Z,32.06
2023-05-18T15:59:51.801Z,31.33
2023-05-18T16:02:25.699Z,31.09
2023-05-18T16:04:55.938Z,31.89
2023-05-18T16:07:29.438Z,32.44
2023-05-18T16:09:57.572Z,32.21
2023-05-18T16:12:25.250Z,31.92
2023-05-18T16:14:52.903Z,32.45
2023-05-18T16:17:25.404Z,32.72
2023-05-18T16:19:56.524Z,32.71
2023-05-18T16:22:27.257Z,32.91
2023-05-18T16:24:59.181Z,32.53
2023-05-18T16:27:30.042Z,32.80
2023-05-18T16:29:57.696Z,32.77
2023-05-18T16:32:28.386Z,32.94
2023-05-18T16:34:59.135Z,32.92
2023-05-18T16:37:31.948Z,32.26
2023-05-18T16:40:05.997Z,32.34
2023-05-18T16:42:34.267Z,32.84
2023-05-18T16:45:05.064Z,32.75
2023-05-18T16:47:36.666Z,32.89
2023-05-18T16:50:07.655Z,33.31
2023-05-18T16:52:55.344Z,33.30
2023-05-18T16:55:28.130Z,32.94
2023-05-18T16:57:56.690Z,33.21
2023-05-18T17:00:29.727Z,33.56
2023-05-18T17:03:03.239Z,33.59
2023-05-18T17:05:34.732Z,33.86
2023-05-18T17:08:05.585Z,33.69
2023-05-18T17:10:35.729Z,33.95
2023-05-18T17:13:03.681Z,33.90
2023-05-18T17:15:36.608Z,33.87
2023-05-18T17:18:07.285Z,33.77
2023-05-18T17:20:34.824Z,33.88
2023-05-18T17:23:05.006Z,33.71
2023-05-18T17:25:34.699Z,34.34
2023-05-18T17:28:07.428Z,33.90
2023-05-18T17:30:37.359Z,34.31
2023-05-18T17:33:06.915Z,34.32
2023-05-18T17:35:36.756Z,34.56
2023-05-18T17:38:04.040Z,34.58
2023-05-18T17:40:31.821Z,34.40
2023-05-18T17:43:02.609Z,34.52
2023-05-18T17:45:32.968Z,34.68
2023-05-18T17:48:03.934Z,34.88
2023-05-18T17:50:31.610Z,34.54
2023-05-18T17:53:03.840Z,34.80
2023-05-18T17:55:34.070Z,34.98
2023-05-18T17:58:02.473Z,35.43
2023-05-18T18:00:35.381Z,35.46
2023-05-18T18:03:03.093Z,35.48
2023-05-18T18:05:31.818Z,36.03
2023-05-18T18:08:03.538Z,35.61
2023-05-18T18:10:33.617Z,35.86
2023-05-18T18:13:03.367Z,35.90
2023-05-18T18:15:33.167Z,35.99
2023-05-18T18:18:06.234Z,36.64
2023-05-18T18:20:36.865Z,36.36
2023-05-18T18:23:07.488Z,36.51
2023-05-18T18:25:37.731Z,36.64
2023-05-18T18:28:13.044Z,36.60
2023-05-18T18:30:45.656Z,37.01
2023-05-18T18:33:15.715Z,36.58
2023-05-18T18:35:43.621Z,36.94
2023-05-18T18:38:13.360Z,36.93
2023-05-18T18:40:43.821Z,36.94
2023-05-18T18:43:11.806Z,37.29
2023-05-18T18:45:39.667Z,37.04
2023-05-18T18:48:09.781Z,36.96
2023-05-18T18:50:39.633Z,37.13
2023-05-18T18:53:06.998Z,37.10
2023-05-18T18:55:37.292Z,37.42
2023-05-18T18:58:04.807Z,37.26
2023-05-18T19:00:32.671Z,37.35
2023-05-18T19:03:03.128Z,37.38
2023-05-18T19:05:31.551Z,37.23
2023-05-18T19:08:02.142Z,37.43
2023-05-18T19:10:30.569Z,37.65
2023-05-18T19:13:00.014Z,37.37
2023-05-18T19:15:30.729Z,37.42
2023-05-18T19:17:58.595Z,37.61
2023-05-18T19:20:28.925Z,37.89
2023-05-18T19:22:58.509Z,37.82
2023-05-18T19:25:26.583Z,37.79
2023-05-18T19:27:59.534Z,37.82
2023-05-18T19:30:27.644Z,38.03
2023-05-18T19:32:55.243Z,38.31
2023-05-18T19:35:25.807Z,37.77
2023-05-18T19:37:53.354Z,37.71
2023-05-18T19:40:27.405Z,38.19
2023-05-18T19:43:00.047Z,37.88
2023-05-18T19:45:30.155Z,37.88
2023-05-18T19:47:57.957Z,37.74
2023-05-18T19:50:25.536Z,38.13
2023-05-18T19:52:55.654Z,37.98
2023-05-18T19:55:23.207Z,37.85
2023-05-18T19:57:56.874Z,38.27
2023-05-18T20:00:29.435Z,38.34
2023-05-18T20:03:02.511Z,38.37
2023-05-18T20:05:30.236Z,38.29
2023-05-18T20:08:03.053Z,38.14
2023-05-18T20:10:31.205Z,38.10
2023-05-18T20:13:03.674Z,38.43
2023-05-18T20:15:36.577Z,38.28
2023-05-18T20:18:07.315Z,38.21
2023-05-18T20:20:35.883Z,38.65
2023-05-18T20:23:03.612Z,38.57
2023-05-18T20:25:36.519Z,38.42
2023-05-18T20:28:07.336Z,38.50
2023-05-18T20:30:34.951Z,38.67
2023-05-18T20:33:04.821Z,38.40
2023-05-18T20:35:33.430Z,38.53
2023-05-18T20:38:02.646Z,38.56
2023-05-18T20:40:33.547Z,38.53
2023-05-18T20:43:04.943Z,38.60
2023-05-18T20:45:36.788Z,38.50
2023-05-18T20:48:04.720Z,38.77
2023-05-18T20:50:33.652Z,38.63
2023-05-18T20:53:01.392Z,38.60
2023-05-18T20:55:29.242Z,39.08
2023-05-18T20:57:56.761Z,38.83
2023-05-18T21:00:26.255Z,38.77
2023-05-18T21:02:56.549Z,39.07
2023-05-18T21:05:24.358Z,38.64
2023-05-18T21:07:57.023Z,38.80
2023-05-18T21:10:26.792Z,38.92
2023-05-18T21:12:54.083Z,38.96
2023-05-18T21:15:23.609Z,38.87
2023-05-18T21:17:55.832Z,38.62
2023-05-18T21:20:23.412Z,38.67
2023-05-18T21:22:53.468Z,38.85
2023-05-18T21:25:28.613Z,38.79
2023-05-18T21:27:55.992Z,38.78
2023-05-18T21:30:25.669Z,38.81
2023-05-18T21:32:55.931Z,39.09
2023-05-18T21:35:26.935Z,39.00
2023-05-18T21:37:57.384Z,38.83
2023-05-18T21:40:27.618Z,39.08
2023-05-18T21:42:57.633Z,39.02
2023-05-18T21:45:26.214Z,39.26
2023-05-18T21:47:53.589Z,39.09
2023-05-18T21:50:21.067Z,39.11
2023-05-18T21:52:48.344Z,38.73
2023-05-18T21:55:15.723Z,38.77
2023-05-18T21:57:43.764Z,39.08
2023-05-18T22:00:13.854Z,39.11
2023-05-18T22:02:43.465Z,39.03
2023-05-18T22:05:16.219Z,39.15
2023-05-18T22:07:43.966Z,39.02
2023-05-18T22:10:11.738Z,39.28
2023-05-18T22:12:43.662Z,39.02
2023-05-18T22:15:13.600Z,38.79
2023-05-18T22:17:43.290Z,39.26
2023-05-18T22:20:14.162Z,38.93
2023-05-18T22:22:44.369Z,39.09
2023-05-18T22:25:18.393Z,38.77
2023-05-18T22:27:46.562Z,39.34
2023-05-18T22:30:17.627Z,39.00
2023-05-18T22:32:46.258Z,39.26
2023-05-18T22:35:14.149Z,39.14
2023-05-18T22:37:41.728Z,39.41
2023-05-18T22:40:11.973Z,39.08
2023-05-18T22:42:45.191Z,39.18
2023-05-18T22:45:12.427Z,39.04
2023-05-18T22:47:46.514Z,39.21
2023-05-18T22:50:16.773Z,39.17
2023-05-18T22:52:47.634Z,39.30
2023-05-18T22:55:15.178Z,39.30
2023-05-18T22:57:44.536Z,39.34
2023-05-18T23:00:20.101Z,39.19
2023-05-18T23:02:49.849Z,39.46
2023-05-18T23:05:19.621Z,39.20
2023-05-18T23:07:50.186Z,39.50
2023-05-18T23:10:19.856Z,39.17
2023-05-18T23:12:48.452Z,39.20
2023-05-18T23:15:18.593Z,39.35
2023-05-18T23:17:49.113Z,39.18
2023-05-18T23:20:19.305Z,39.22
2023-05-18T23:22:49.525Z,39.30
2023-05-18T23:25:22.724Z,39.31
2023-05-18T23:27:50.129Z,39.12
2023-05-18T23:30:18.006Z,39.14
2023-05-18T23:32:48.968Z,39.09
2023-05-18T23:35:17.449Z,39.25
2023-05-18T23:37:49.204Z,39.05
2023-05-18T23:40:18.332Z,39.38
2023-05-18T23:42:49.220Z,39.03
2023-05-18T23:45:16.789Z,38.96
2023-05-18T23:47:47.230Z,38.80
2023-05-18T23:50:18.122Z,39.10
2023-05-18T23:52:52.273Z,39.00
2023-05-18T23:55:26.812Z,39.24
2023-05-18T23:58:00.656Z,39.40
